sensor_id;sensor_type;location;lat;lon;timestamp;pressure;altitude;pressure_sealevel;temperature;humidity
77450;BME280;66536;53.150;18.172;2023-04-30T00:01:06;101316.81;;;6.92;75.42
77450;BME280;66536;53.150;18.172;2023-04-30T00:03:32;101316.29;;;6.88;75.91
77450;BME280;66536;53.150;18.172;2023-04-30T00:05:58;101320.90;;;6.83;76.25
77450;BME280;66536;53.150;18.172;2023-04-30T00:08:23;101323.48;;;6.79;76.11
77450;BME280;66536;53.150;18.172;2023-04-30T00:10:49;101324.88;;;6.72;76.02
77450;BME280;66536;53.150;18.172;2023-04-30T00:13:16;101329.66;;;6.66;76.08
77450;BME280;66536;53.150;18.172;2023-04-30T00:15:43;101330.80;;;6.60;75.87
77450;BME280;66536;53.150;18.172;2023-04-30T00:18:10;101332.32;;;6.54;75.85
77450;BME280;66536;53.150;18.172;2023-04-30T00:20:36;101336.94;;;6.50;75.92
77450;BME280;66536;53.150;18.172;2023-04-30T00:23:02;101338.02;;;6.46;75.86
77450;BME280;66536;53.150;18.172;2023-04-30T00:25:28;101340.16;;;6.42;75.89
77450;BME280;66536;53.150;18.172;2023-04-30T00:27:54;101341.89;;;6.39;75.93
77450;BME280;66536;53.150;18.172;2023-04-30T00:30:22;101345.30;;;6.36;76.13
77450;BME280;66536;53.150;18.172;2023-04-30T00:32:49;101346.37;;;6.32;75.98
77450;BME280;66536;53.150;18.172;2023-04-30T00:35:15;101353.66;;;6.30;75.90
77450;BME280;66536;53.150;18.172;2023-04-30T00:37:41;101356.56;;;6.27;75.95
77450;BME280;66536;53.150;18.172;2023-04-30T00:40:08;101356.87;;;6.24;76.05
77450;BME280;66536;53.150;18.172;2023-04-30T00:42:34;101365.02;;;6.20;76.14
77450;BME280;66536;53.150;18.172;2023-04-30T00:45:00;101369.63;;;6.15;76.09
77450;BME280;66536;53.150;18.172;2023-04-30T00:47:27;101371.23;;;6.11;76.23
77450;BME280;66536;53.150;18.172;2023-04-30T00:49:53;101377.44;;;6.09;76.35
77450;BME280;66536;53.150;18.172;2023-04-30T00:52:19;101379.02;;;6.05;76.63
77450;BME280;66536;53.150;18.172;2023-04-30T00:54:45;101385.17;;;6.02;76.39
77450;BME280;66536;53.150;18.172;2023-04-30T00:57:13;101388.96;;;6.00;76.21
77450;BME280;66536;53.150;18.172;2023-04-30T00:59:40;101398.30;;;5.98;76.22
77450;BME280;66536;53.150;18.172;2023-04-30T01:02:07;101393.54;;;5.94;76.26
77450;BME280;66536;53.150;18.172;2023-04-30T01:04:33;101391.96;;;5.91;76.31
77450;BME280;66536;53.150;18.172;2023-04-30T01:07:00;101395.34;;;5.89;76.28
77450;BME280;66536;53.150;18.172;2023-04-30T01:09:28;101395.55;;;5.87;76.36
77450;BME280;66536;53.150;18.172;2023-04-30T01:12:13;101392.42;;;5.84;76.14
77450;BME280;66536;53.150;18.172;2023-04-30T01:14:56;101396.61;;;5.81;76.32
77450;BME280;66536;53.150;18.172;2023-04-30T01:17:40;101405.22;;;5.77;76.33
77450;BME280;66536;53.150;18.172;2023-04-30T01:20:11;101400.11;;;5.72;76.42
77450;BME280;66536;53.150;18.172;2023-04-30T01:22:47;101400.58;;;5.69;76.73
77450;BME280;66536;53.150;18.172;2023-04-30T01:28:14;101410.22;;;5.59;76.80
77450;BME280;66536;53.150;18.172;2023-04-30T01:30:42;101414.15;;;5.54;76.83
77450;BME280;66536;53.150;18.172;2023-04-30T01:33:10;101413.16;;;5.49;77.20
77450;BME280;66536;53.150;18.172;2023-04-30T01:35:55;101419.59;;;5.43;77.29
77450;BME280;66536;53.150;18.172;2023-04-30T01:38:45;101415.36;;;5.37;77.23
77450;BME280;66536;53.150;18.172;2023-04-30T01:41:21;101419.21;;;5.33;77.29
77450;BME280;66536;53.150;18.172;2023-04-30T01:44:05;101425.54;;;5.30;77.19
77450;BME280;66536;53.150;18.172;2023-04-30T01:46:36;101427.04;;;5.27;77.26
77450;BME280;66536;53.150;18.172;2023-04-30T01:49:18;101431.37;;;5.23;77.32
77450;BME280;66536;53.150;18.172;2023-04-30T01:51:47;101430.16;;;5.18;77.43
77450;BME280;66536;53.150;18.172;2023-04-30T01:54:26;101434.61;;;5.15;77.38
77450;BME280;66536;53.150;18.172;2023-04-30T01:57:05;101436.60;;;5.11;77.59
77450;BME280;66536;53.150;18.172;2023-04-30T01:59:34;101442.70;;;5.10;77.82
77450;BME280;66536;53.150;18.172;2023-04-30T02:02:02;101445.00;;;5.10;77.87
77450;BME280;66536;53.150;18.172;2023-04-30T02:04:30;101445.28;;;5.09;77.81
77450;BME280;66536;53.150;18.172;2023-04-30T02:06:56;101445.62;;;5.07;77.81
77450;BME280;66536;53.150;18.172;2023-04-30T02:09:23;101451.84;;;5.05;77.92
77450;BME280;66536;53.150;18.172;2023-04-30T02:11:49;101450.46;;;5.01;78.02
77450;BME280;66536;53.150;18.172;2023-04-30T02:14:16;101452.95;;;4.99;78.01
77450;BME280;66536;53.150;18.172;2023-04-30T02:16:43;101451.27;;;4.94;78.22
77450;BME280;66536;53.150;18.172;2023-04-30T02:19:09;101453.08;;;4.92;78.24
77450;BME280;66536;53.150;18.172;2023-04-30T02:21:36;101453.27;;;4.90;78.35
77450;BME280;66536;53.150;18.172;2023-04-30T02:24:02;101458.71;;;4.89;78.32
77450;BME280;66536;53.150;18.172;2023-04-30T02:26:30;101459.25;;;4.87;78.39
77450;BME280;66536;53.150;18.172;2023-04-30T02:28:56;101464.29;;;4.84;78.30
77450;BME280;66536;53.150;18.172;2023-04-30T02:31:22;101466.17;;;4.81;78.52
77450;BME280;66536;53.150;18.172;2023-04-30T02:33:48;101468.94;;;4.77;78.54
77450;BME280;66536;53.150;18.172;2023-04-30T02:36:14;101464.86;;;4.73;78.63
77450;BME280;66536;53.150;18.172;2023-04-30T02:38:40;101469.79;;;4.68;78.81
77450;BME280;66536;53.150;18.172;2023-04-30T02:41:18;101470.67;;;4.65;78.98
77450;BME280;66536;53.150;18.172;2023-04-30T02:43:43;101474.36;;;4.60;78.97
77450;BME280;66536;53.150;18.172;2023-04-30T02:46:09;101473.73;;;4.56;79.09
77450;BME280;66536;53.150;18.172;2023-04-30T02:48:35;101477.37;;;4.52;79.08
77450;BME280;66536;53.150;18.172;2023-04-30T02:51:01;101480.94;;;4.47;79.14
77450;BME280;66536;53.150;18.172;2023-04-30T02:53:29;101485.16;;;4.42;79.29
77450;BME280;66536;53.150;18.172;2023-04-30T02:55:55;101491.79;;;4.38;79.42
77450;BME280;66536;53.150;18.172;2023-04-30T02:58:21;101493.68;;;4.34;79.64
77450;BME280;66536;53.150;18.172;2023-04-30T03:00:50;101495.30;;;4.31;79.59
77450;BME280;66536;53.150;18.172;2023-04-30T03:03:16;101495.27;;;4.28;79.56
77450;BME280;66536;53.150;18.172;2023-04-30T03:05:43;101496.73;;;4.26;79.52
77450;BME280;66536;53.150;18.172;2023-04-30T03:08:08;101501.12;;;4.22;79.49
77450;BME280;66536;53.150;18.172;2023-04-30T03:10:35;101506.09;;;4.18;79.43
77450;BME280;66536;53.150;18.172;2023-04-30T03:13:01;101502.35;;;4.15;79.47
77450;BME280;66536;53.150;18.172;2023-04-30T03:15:26;101502.52;;;4.11;79.51
77450;BME280;66536;53.150;18.172;2023-04-30T03:17:52;101505.70;;;4.10;79.64
77450;BME280;66536;53.150;18.172;2023-04-30T03:20:20;101511.65;;;4.10;79.58
77450;BME280;66536;53.150;18.172;2023-04-30T03:22:46;101511.11;;;4.11;79.64
77450;BME280;66536;53.150;18.172;2023-04-30T03:25:12;101516.69;;;4.11;79.46
77450;BME280;66536;53.150;18.172;2023-04-30T03:27:39;101521.30;;;4.11;79.54
77450;BME280;66536;53.150;18.172;2023-04-30T03:30:05;101528.11;;;4.11;79.43
77450;BME280;66536;53.150;18.172;2023-04-30T03:32:32;101533.14;;;4.12;79.44
77450;BME280;66536;53.150;18.172;2023-04-30T03:34:58;101528.23;;;4.12;79.52
77450;BME280;66536;53.150;18.172;2023-04-30T03:37:26;101532.02;;;4.12;79.51
77450;BME280;66536;53.150;18.172;2023-04-30T03:39:51;101535.55;;;4.12;79.52
77450;BME280;66536;53.150;18.172;2023-04-30T03:42:17;101538.59;;;4.13;79.48
77450;BME280;66536;53.150;18.172;2023-04-30T03:44:43;101539.98;;;4.14;79.48
77450;BME280;66536;53.150;18.172;2023-04-30T03:47:09;101537.78;;;4.16;79.52
77450;BME280;66536;53.150;18.172;2023-04-30T03:49:35;101538.06;;;4.16;79.63
77450;BME280;66536;53.150;18.172;2023-04-30T03:52:02;101539.77;;;4.16;79.57
77450;BME280;66536;53.150;18.172;2023-04-30T03:54:31;101543.56;;;4.18;79.57
77450;BME280;66536;53.150;18.172;2023-04-30T03:57:00;101553.05;;;4.21;79.63
77450;BME280;66536;53.150;18.172;2023-04-30T03:59:30;101556.39;;;4.23;79.48
77450;BME280;66536;53.150;18.172;2023-04-30T04:01:57;101557.30;;;4.26;79.52
77450;BME280;66536;53.150;18.172;2023-04-30T04:04:23;101564.38;;;4.29;79.60
77450;BME280;66536;53.150;18.172;2023-04-30T04:06:49;101562.96;;;4.29;79.69
77450;BME280;66536;53.150;18.172;2023-04-30T04:09:16;101564.21;;;4.29;79.60
77450;BME280;66536;53.150;18.172;2023-04-30T04:11:43;101567.55;;;4.30;79.75
77450;BME280;66536;53.150;18.172;2023-04-30T04:14:08;101570.30;;;4.31;80.07
77450;BME280;66536;53.150;18.172;2023-04-30T04:16:35;101572.46;;;4.34;80.02
77450;BME280;66536;53.150;18.172;2023-04-30T04:19:02;101574.02;;;4.37;80.04
77450;BME280;66536;53.150;18.172;2023-04-30T04:21:29;101578.35;;;4.42;79.99
77450;BME280;66536;53.150;18.172;2023-04-30T04:23:57;101581.36;;;4.48;79.76
77450;BME280;66536;53.150;18.172;2023-04-30T04:26:24;101587.31;;;4.53;79.62
77450;BME280;66536;53.150;18.172;2023-04-30T04:28:50;101590.80;;;4.60;79.43
77450;BME280;66536;53.150;18.172;2023-04-30T04:31:19;101594.33;;;4.66;79.42
77450;BME280;66536;53.150;18.172;2023-04-30T04:33:46;101599.04;;;4.70;79.37
77450;BME280;66536;53.150;18.172;2023-04-30T04:36:12;101602.04;;;4.74;79.03
77450;BME280;66536;53.150;18.172;2023-04-30T04:38:40;101603.08;;;4.79;78.95
77450;BME280;66536;53.150;18.172;2023-04-30T04:41:06;101608.20;;;4.85;78.91
77450;BME280;66536;53.150;18.172;2023-04-30T04:43:33;101610.24;;;4.90;78.84
77450;BME280;66536;53.150;18.172;2023-04-30T04:45:59;101612.68;;;4.97;78.81
77450;BME280;66536;53.150;18.172;2023-04-30T04:48:25;101613.70;;;5.04;78.37
77450;BME280;66536;53.150;18.172;2023-04-30T04:50:51;101615.05;;;5.11;78.17
77450;BME280;66536;53.150;18.172;2023-04-30T04:53:18;101613.94;;;5.18;77.88
77450;BME280;66536;53.150;18.172;2023-04-30T04:55:43;101619.30;;;5.22;77.89
77450;BME280;66536;53.150;18.172;2023-04-30T04:58:09;101626.29;;;5.29;77.76
77450;BME280;66536;53.150;18.172;2023-04-30T05:00:37;101625.32;;;5.35;77.25
77450;BME280;66536;53.150;18.172;2023-04-30T05:03:03;101624.04;;;5.42;77.32
77450;BME280;66536;53.150;18.172;2023-04-30T05:05:30;101632.23;;;5.49;77.12
77450;BME280;66536;53.150;18.172;2023-04-30T05:08:00;101633.89;;;5.56;76.86
77450;BME280;66536;53.150;18.172;2023-04-30T05:10:26;101641.02;;;5.65;76.82
77450;BME280;66536;53.150;18.172;2023-04-30T05:12:54;101643.10;;;5.72;76.61
77450;BME280;66536;53.150;18.172;2023-04-30T05:15:20;101652.79;;;5.77;76.27
77450;BME280;66536;53.150;18.172;2023-04-30T05:17:46;101646.40;;;5.85;75.67
77450;BME280;66536;53.150;18.172;2023-04-30T05:20:12;101652.30;;;5.93;75.71
77450;BME280;66536;53.150;18.172;2023-04-30T05:22:38;101655.72;;;6.00;75.35
77450;BME280;66536;53.150;18.172;2023-04-30T05:25:04;101657.81;;;6.08;75.06
77450;BME280;66536;53.150;18.172;2023-04-30T05:27:31;101660.22;;;6.17;74.92
77450;BME280;66536;53.150;18.172;2023-04-30T05:29:57;101660.19;;;6.25;74.38
77450;BME280;66536;53.150;18.172;2023-04-30T05:32:23;101666.23;;;6.33;73.54
77450;BME280;66536;53.150;18.172;2023-04-30T05:34:49;101665.79;;;6.43;73.96
77450;BME280;66536;53.150;18.172;2023-04-30T05:37:15;101668.45;;;6.51;72.93
77450;BME280;66536;53.150;18.172;2023-04-30T05:39:44;101665.46;;;6.59;72.92
77450;BME280;66536;53.150;18.172;2023-04-30T05:42:10;101671.34;;;6.67;73.09
77450;BME280;66536;53.150;18.172;2023-04-30T05:44:35;101674.48;;;6.76;73.11
77450;BME280;66536;53.150;18.172;2023-04-30T05:47:02;101680.20;;;6.84;72.35
77450;BME280;66536;53.150;18.172;2023-04-30T05:49:28;101681.17;;;6.89;71.59
77450;BME280;66536;53.150;18.172;2023-04-30T05:51:54;101681.70;;;6.95;71.94
77450;BME280;66536;53.150;18.172;2023-04-30T05:54:20;101684.71;;;7.04;71.60
77450;BME280;66536;53.150;18.172;2023-04-30T05:56:46;101687.11;;;7.15;71.44
77450;BME280;66536;53.150;18.172;2023-04-30T05:59:12;101690.43;;;7.24;70.55
77450;BME280;66536;53.150;18.172;2023-04-30T06:01:38;101692.23;;;7.31;70.73
77450;BME280;66536;53.150;18.172;2023-04-30T06:04:04;101695.75;;;7.39;69.58
77450;BME280;66536;53.150;18.172;2023-04-30T06:06:30;101699.84;;;7.44;69.87
77450;BME280;66536;53.150;18.172;2023-04-30T06:08:58;101701.63;;;7.51;70.16
77450;BME280;66536;53.150;18.172;2023-04-30T06:11:25;101704.23;;;7.60;69.95
77450;BME280;66536;53.150;18.172;2023-04-30T06:13:52;101702.33;;;7.70;69.67
77450;BME280;66536;53.150;18.172;2023-04-30T06:16:18;101702.89;;;7.81;68.49
77450;BME280;66536;53.150;18.172;2023-04-30T06:18:44;101702.73;;;7.87;67.54
77450;BME280;66536;53.150;18.172;2023-04-30T06:21:11;101702.90;;;7.92;67.83
77450;BME280;66536;53.150;18.172;2023-04-30T06:23:37;101705.16;;;7.99;67.34
77450;BME280;66536;53.150;18.172;2023-04-30T06:26:03;101702.02;;;8.08;67.72
77450;BME280;66536;53.150;18.172;2023-04-30T06:28:29;101703.38;;;8.16;66.94
77450;BME280;66536;53.150;18.172;2023-04-30T06:30:55;101700.66;;;8.24;67.26
77450;BME280;66536;53.150;18.172;2023-04-30T06:33:21;101709.20;;;8.29;65.63
77450;BME280;66536;53.150;18.172;2023-04-30T06:35:47;101703.65;;;8.32;65.66
77450;BME280;66536;53.150;18.172;2023-04-30T06:38:16;101705.98;;;8.39;65.86
77450;BME280;66536;53.150;18.172;2023-04-30T06:40:43;101711.17;;;8.47;65.04
77450;BME280;66536;53.150;18.172;2023-04-30T06:43:09;101707.84;;;8.52;64.71
77450;BME280;66536;53.150;18.172;2023-04-30T06:45:35;101713.16;;;8.60;64.70
77450;BME280;66536;53.150;18.172;2023-04-30T06:48:01;101716.00;;;8.67;63.11
77450;BME280;66536;53.150;18.172;2023-04-30T06:50:27;101715.23;;;8.72;62.42
77450;BME280;66536;53.150;18.172;2023-04-30T06:52:53;101714.98;;;8.79;62.88
77450;BME280;66536;53.150;18.172;2023-04-30T06:55:19;101715.86;;;8.90;62.99
77450;BME280;66536;53.150;18.172;2023-04-30T06:57:46;101719.44;;;9.00;62.40
77450;BME280;66536;53.150;18.172;2023-04-30T07:00:12;101724.45;;;9.08;60.23
77450;BME280;66536;53.150;18.172;2023-04-30T07:02:40;101720.41;;;9.12;60.25
77450;BME280;66536;53.150;18.172;2023-04-30T07:05:06;101724.13;;;9.17;59.28
77450;BME280;66536;53.150;18.172;2023-04-30T07:07:33;101723.98;;;9.20;57.84
77450;BME280;66536;53.150;18.172;2023-04-30T07:09:59;101720.46;;;9.24;58.74
77450;BME280;66536;53.150;18.172;2023-04-30T07:12:25;101727.33;;;9.34;58.51
77450;BME280;66536;53.150;18.172;2023-04-30T07:14:51;101726.61;;;9.45;57.96
77450;BME280;66536;53.150;18.172;2023-04-30T07:17:18;101728.15;;;9.54;57.76
77450;BME280;66536;53.150;18.172;2023-04-30T07:19:43;101730.14;;;9.64;56.27
77450;BME280;66536;53.150;18.172;2023-04-30T07:22:10;101729.50;;;9.75;56.76
77450;BME280;66536;53.150;18.172;2023-04-30T07:24:36;101738.20;;;9.83;53.85
77450;BME280;66536;53.150;18.172;2023-04-30T07:27:02;101734.05;;;9.88;54.50
77450;BME280;66536;53.150;18.172;2023-04-30T07:29:28;101737.92;;;9.98;53.65
77450;BME280;66536;53.150;18.172;2023-04-30T07:32:04;101739.54;;;10.04;54.16
77450;BME280;66536;53.150;18.172;2023-04-30T07:34:31;101733.78;;;10.14;53.78
77450;BME280;66536;53.150;18.172;2023-04-30T07:36:58;101735.39;;;10.21;53.59
77450;BME280;66536;53.150;18.172;2023-04-30T07:39:24;101736.69;;;10.28;52.48
77450;BME280;66536;53.150;18.172;2023-04-30T07:41:51;101735.77;;;10.34;53.09
77450;BME280;66536;53.150;18.172;2023-04-30T07:44:17;101734.46;;;10.41;52.10
77450;BME280;66536;53.150;18.172;2023-04-30T07:46:43;101744.30;;;10.48;50.15
77450;BME280;66536;53.150;18.172;2023-04-30T07:49:09;101740.60;;;10.53;49.68
77450;BME280;66536;53.150;18.172;2023-04-30T07:51:35;101745.41;;;10.57;49.10
77450;BME280;66536;53.150;18.172;2023-04-30T07:54:02;101734.60;;;10.57;50.40
77450;BME280;66536;53.150;18.172;2023-04-30T07:56:28;101742.09;;;10.63;49.57
77450;BME280;66536;53.150;18.172;2023-04-30T07:58:54;101745.36;;;10.66;49.12
77450;BME280;66536;53.150;18.172;2023-04-30T08:01:20;101749.29;;;10.68;47.76
77450;BME280;66536;53.150;18.172;2023-04-30T08:03:47;101746.36;;;10.70;47.13
77450;BME280;66536;53.150;18.172;2023-04-30T08:06:13;101750.67;;;10.74;47.02
77450;BME280;66536;53.150;18.172;2023-04-30T08:08:39;101751.08;;;10.78;48.54
77450;BME280;66536;53.150;18.172;2023-04-30T08:11:05;101755.95;;;10.83;46.90
77450;BME280;66536;53.150;18.172;2023-04-30T08:13:31;101754.16;;;10.88;43.45
77450;BME280;66536;53.150;18.172;2023-04-30T08:15:57;101759.73;;;10.90;44.36
77450;BME280;66536;53.150;18.172;2023-04-30T08:18:23;101763.09;;;10.92;45.08
77450;BME280;66536;53.150;18.172;2023-04-30T08:20:49;101758.95;;;10.97;47.41
77450;BME280;66536;53.150;18.172;2023-04-30T08:23:15;101758.81;;;11.13;48.18
77450;BME280;66536;53.150;18.172;2023-04-30T08:25:47;101758.66;;;11.32;48.33
77450;BME280;66536;53.150;18.172;2023-04-30T08:28:13;101758.20;;;11.50;47.95
77450;BME280;66536;53.150;18.172;2023-04-30T08:30:40;101764.54;;;11.62;46.53
77450;BME280;66536;53.150;18.172;2023-04-30T08:33:06;101766.77;;;11.68;45.76
77450;BME280;66536;53.150;18.172;2023-04-30T08:35:33;101776.39;;;11.65;44.93
77450;BME280;66536;53.150;18.172;2023-04-30T08:37:59;101774.46;;;11.46;44.64
77450;BME280;66536;53.150;18.172;2023-04-30T08:40:26;101775.98;;;11.45;45.49
77450;BME280;66536;53.150;18.172;2023-04-30T08:43:04;101778.48;;;11.48;45.41
77450;BME280;66536;53.150;18.172;2023-04-30T08:45:32;101780.48;;;11.54;45.49
77450;BME280;66536;53.150;18.172;2023-04-30T08:47:59;101782.07;;;11.64;46.18
77450;BME280;66536;53.150;18.172;2023-04-30T08:50:26;101784.79;;;11.81;44.83
77450;BME280;66536;53.150;18.172;2023-04-30T08:52:53;101785.50;;;11.92;45.04
77450;BME280;66536;53.150;18.172;2023-04-30T08:55:19;101783.45;;;12.03;45.03
77450;BME280;66536;53.150;18.172;2023-04-30T08:57:45;101785.05;;;12.15;44.60
77450;BME280;66536;53.150;18.172;2023-04-30T09:00:12;101787.16;;;12.26;44.65
77450;BME280;66536;53.150;18.172;2023-04-30T09:02:40;101788.95;;;12.23;44.15
77450;BME280;66536;53.150;18.172;2023-04-30T09:05:11;101789.88;;;12.18;44.35
77450;BME280;66536;53.150;18.172;2023-04-30T09:07:42;101794.87;;;12.24;42.36
77450;BME280;66536;53.150;18.172;2023-04-30T09:10:16;101792.11;;;12.24;42.77
77450;BME280;66536;53.150;18.172;2023-04-30T09:12:43;101790.81;;;12.29;42.83
77450;BME280;66536;53.150;18.172;2023-04-30T09:15:11;101803.95;;;12.39;40.94
77450;BME280;66536;53.150;18.172;2023-04-30T09:17:37;101795.52;;;12.48;41.13
77450;BME280;66536;53.150;18.172;2023-04-30T09:20:12;101795.14;;;12.55;41.31
77450;BME280;66536;53.150;18.172;2023-04-30T09:22:41;101796.13;;;12.62;42.49
77450;BME280;66536;53.150;18.172;2023-04-30T09:25:08;101796.80;;;12.67;41.53
77450;BME280;66536;53.150;18.172;2023-04-30T09:27:34;101800.73;;;12.76;41.91
77450;BME280;66536;53.150;18.172;2023-04-30T09:30:00;101806.89;;;12.89;41.04
77450;BME280;66536;53.150;18.172;2023-04-30T09:32:26;101803.73;;;13.01;41.25
77450;BME280;66536;53.150;18.172;2023-04-30T09:34:53;101804.16;;;13.06;40.58
77450;BME280;66536;53.150;18.172;2023-04-30T09:37:20;101800.65;;;13.10;40.82
77450;BME280;66536;53.150;18.172;2023-04-30T09:39:49;101804.52;;;13.07;39.93
77450;BME280;66536;53.150;18.172;2023-04-30T09:42:16;101799.42;;;12.96;40.08
77450;BME280;66536;53.150;18.172;2023-04-30T09:44:42;101798.00;;;12.95;41.03
77450;BME280;66536;53.150;18.172;2023-04-30T09:47:11;101803.33;;;13.06;39.98
77450;BME280;66536;53.150;18.172;2023-04-30T09:49:40;101800.51;;;13.15;39.11
77450;BME280;66536;53.150;18.172;2023-04-30T09:52:07;101800.31;;;13.19;39.06
77450;BME280;66536;53.150;18.172;2023-04-30T09:54:34;101800.23;;;13.18;38.79
77450;BME280;66536;53.150;18.172;2023-04-30T09:57:02;101803.81;;;13.24;39.39
77450;BME280;66536;53.150;18.172;2023-04-30T09:59:31;101805.05;;;13.37;38.59
77450;BME280;66536;53.150;18.172;2023-04-30T10:02:00;101808.77;;;13.40;38.00
77450;BME280;66536;53.150;18.172;2023-04-30T10:04:36;101800.20;;;13.37;38.76
77450;BME280;66536;53.150;18.172;2023-04-30T10:07:08;101792.02;;;13.44;38.68
77450;BME280;66536;53.150;18.172;2023-04-30T10:09:40;101787.24;;;13.50;39.19
77450;BME280;66536;53.150;18.172;2023-04-30T10:12:13;101784.37;;;13.68;38.20
77450;BME280;66536;53.150;18.172;2023-04-30T10:14:47;101784.69;;;13.72;38.52
77450;BME280;66536;53.150;18.172;2023-04-30T10:17:16;101789.58;;;13.73;37.79
77450;BME280;66536;53.150;18.172;2023-04-30T10:19:46;101783.97;;;13.65;37.44
77450;BME280;66536;53.150;18.172;2023-04-30T10:22:13;101791.08;;;13.55;37.66
77450;BME280;66536;53.150;18.172;2023-04-30T10:24:41;101785.35;;;13.55;38.04
77450;BME280;66536;53.150;18.172;2023-04-30T10:27:08;101784.14;;;13.65;37.99
77450;BME280;66536;53.150;18.172;2023-04-30T10:29:34;101781.57;;;13.73;37.72
77450;BME280;66536;53.150;18.172;2023-04-30T10:32:00;101785.14;;;13.76;38.08
77450;BME280;66536;53.150;18.172;2023-04-30T10:34:49;101785.86;;;13.80;38.48
77450;BME280;66536;53.150;18.172;2023-04-30T10:37:48;101779.33;;;13.94;38.51
77450;BME280;66536;53.150;18.172;2023-04-30T10:40:14;101780.73;;;14.07;37.81
77450;BME280;66536;53.150;18.172;2023-04-30T10:42:46;101784.85;;;14.02;37.25
77450;BME280;66536;53.150;18.172;2023-04-30T10:45:15;101780.92;;;13.97;37.59
77450;BME280;66536;53.150;18.172;2023-04-30T10:47:42;101775.56;;;14.04;37.47
77450;BME280;66536;53.150;18.172;2023-04-30T10:50:10;101771.30;;;14.08;37.30
77450;BME280;66536;53.150;18.172;2023-04-30T10:52:39;101779.87;;;14.17;37.08
77450;BME280;66536;53.150;18.172;2023-04-30T10:55:07;101780.58;;;14.21;36.24
77450;BME280;66536;53.150;18.172;2023-04-30T10:57:41;101774.95;;;14.18;36.37
77450;BME280;66536;53.150;18.172;2023-04-30T11:00:26;101777.30;;;14.18;36.74
77450;BME280;66536;53.150;18.172;2023-04-30T11:02:57;101779.63;;;14.23;36.74
77450;BME280;66536;53.150;18.172;2023-04-30T11:05:34;101773.85;;;14.22;36.95
77450;BME280;66536;53.150;18.172;2023-04-30T11:08:01;101764.45;;;14.25;37.65
77450;BME280;66536;53.150;18.172;2023-04-30T11:10:33;101762.13;;;14.34;37.27
77450;BME280;66536;53.150;18.172;2023-04-30T11:13:07;101779.77;;;14.43;35.96
77450;BME280;66536;53.150;18.172;2023-04-30T11:15:40;101765.83;;;14.43;36.08
77450;BME280;66536;53.150;18.172;2023-04-30T11:18:12;101769.02;;;14.51;35.89
77450;BME280;66536;53.150;18.172;2023-04-30T11:20:48;101764.29;;;14.62;35.23
77450;BME280;66536;53.150;18.172;2023-04-30T11:23:22;101769.96;;;14.66;35.50
77450;BME280;66536;53.150;18.172;2023-04-30T11:25:53;101784.96;;;14.76;35.31
77450;BME280;66536;53.150;18.172;2023-04-30T11:28:25;101767.13;;;14.74;35.81
77450;BME280;66536;53.150;18.172;2023-04-30T11:30:54;101771.20;;;14.76;35.73
77450;BME280;66536;53.150;18.172;2023-04-30T11:33:23;101770.08;;;14.88;36.04
77450;BME280;66536;53.150;18.172;2023-04-30T11:35:55;101770.61;;;14.96;35.71
77450;BME280;66536;53.150;18.172;2023-04-30T11:38:26;101763.82;;;14.97;35.79
77450;BME280;66536;53.150;18.172;2023-04-30T11:40:53;101764.71;;;14.97;36.20
77450;BME280;66536;53.150;18.172;2023-04-30T11:43:31;101766.14;;;15.04;35.04
77450;BME280;66536;53.150;18.172;2023-04-30T11:46:11;101765.14;;;14.97;35.63
77450;BME280;66536;53.150;18.172;2023-04-30T11:48:39;101780.56;;;15.01;34.21
77450;BME280;66536;53.150;18.172;2023-04-30T11:51:18;101774.11;;;14.98;33.47
77450;BME280;66536;53.150;18.172;2023-04-30T11:54:07;101777.39;;;14.94;34.45
77450;BME280;66536;53.150;18.172;2023-04-30T11:56:37;101766.98;;;14.98;35.13
77450;BME280;66536;53.150;18.172;2023-04-30T11:59:09;101778.27;;;15.04;35.17
77450;BME280;66536;53.150;18.172;2023-04-30T12:01:35;101771.04;;;15.04;35.10
77450;BME280;66536;53.150;18.172;2023-04-30T12:04:03;101769.11;;;15.13;35.17
77450;BME280;66536;53.150;18.172;2023-04-30T12:06:29;101772.18;;;15.23;34.92
77450;BME280;66536;53.150;18.172;2023-04-30T12:08:58;101777.95;;;15.18;33.31
77450;BME280;66536;53.150;18.172;2023-04-30T12:11:28;101767.86;;;15.08;33.31
77450;BME280;66536;53.150;18.172;2023-04-30T12:14:02;101765.05;;;15.07;33.56
77450;BME280;66536;53.150;18.172;2023-04-30T12:16:41;101769.79;;;15.13;33.50
77450;BME280;66536;53.150;18.172;2023-04-30T12:19:08;101765.83;;;15.13;32.59
77450;BME280;66536;53.150;18.172;2023-04-30T12:21:35;101757.98;;;15.17;33.61
77450;BME280;66536;53.150;18.172;2023-04-30T12:24:01;101756.09;;;15.23;34.33
77450;BME280;66536;53.150;18.172;2023-04-30T12:26:39;101766.56;;;15.30;33.81
77450;BME280;66536;53.150;18.172;2023-04-30T12:29:09;101765.83;;;15.25;34.17
77450;BME280;66536;53.150;18.172;2023-04-30T12:31:36;101771.66;;;15.24;33.98
77450;BME280;66536;53.150;18.172;2023-04-30T12:34:05;101770.51;;;15.22;34.38
77450;BME280;66536;53.150;18.172;2023-04-30T12:36:33;101766.95;;;15.26;34.40
77450;BME280;66536;53.150;18.172;2023-04-30T12:39:06;101767.54;;;15.34;33.25
77450;BME280;66536;53.150;18.172;2023-04-30T12:41:39;101768.63;;;15.39;32.88
77450;BME280;66536;53.150;18.172;2023-04-30T12:44:19;101775.55;;;15.43;32.96
77450;BME280;66536;53.150;18.172;2023-04-30T12:46:47;101771.49;;;15.42;33.03
77450;BME280;66536;53.150;18.172;2023-04-30T12:49:27;101765.44;;;15.47;33.72
77450;BME280;66536;53.150;18.172;2023-04-30T12:51:59;101759.67;;;15.60;33.54
77450;BME280;66536;53.150;18.172;2023-04-30T12:54:45;101774.99;;;15.63;32.93